createdAt,value
2023-03-06T00:04:58.738Z,90.01
2023-03-06T00:10:06.787Z,89.95
2023-03-06T00:15:17.033Z,90.29
2023-03-06T00:20:27.753Z,90.45
2023-03-06T00:25:37.323Z,90.74
2023-03-06T00:30:46.258Z,90.75
2023-03-06T00:35:53.796Z,90.57
2023-03-06T00:41:01.437Z,90.75
2023-03-06T00:46:09.543Z,90.82
2023-03-06T00:51:20.278Z,90.39
2023-03-06T00:56:27.832Z,90.47
2023-03-06T01:01:35.792Z,90.57
2023-03-06T01:06:43.367Z,90.26
2023-03-06T01:11:51.155Z,90.44
2023-03-06T01:16:59.688Z,90.14
2023-03-06T01:22:07.200Z,90.17
2023-03-06T01:27:14.862Z,90.07
2023-03-06T01:32:23.074Z,90.04
2023-03-06T01:37:30.931Z,89.99
2023-03-06T01:42:38.781Z,90.06
2023-03-06T01:47:46.151Z,89.77
2023-03-06T01:52:57.334Z,89.85
2023-03-06T01:58:08.998Z,90.30
2023-03-06T02:03:20.557Z,90.48
2023-03-06T02:08:28.708Z,90.74
2023-03-06T02:13:37.238Z,91.15
2023-03-06T02:18:45.908Z,91.34
2023-03-06T02:24:08.094Z,91.36
2023-03-06T02:29:16.386Z,91.08
2023-03-06T02:35:00.686Z,91.08
2023-03-06T02:40:15.777Z,90.97
2023-03-06T02:45:30.315Z,90.57
2023-03-06T02:50:37.862Z,90.51
2023-03-06T02:55:45.580Z,90.34
2023-03-06T03:00:53.828Z,90.45
2023-03-06T03:06:01.488Z,90.45
2023-03-06T03:11:09.639Z,90.42
2023-03-06T03:16:18.501Z,90.66
2023-03-06T03:21:26.029Z,90.73
2023-03-06T03:26:33.526Z,90.88
2023-03-06T03:31:41.501Z,91.16
2023-03-06T03:36:49.480Z,91.30
2023-03-06T03:41:56.954Z,91.48
2023-03-06T03:47:04.241Z,91.40
2023-03-06T03:52:11.884Z,91.52
2023-03-06T03:57:19.312Z,91.85
2023-03-06T04:02:27.140Z,91.88
2023-03-06T04:07:34.354Z,91.82
2023-03-06T04:12:41.737Z,91.87
2023-03-06T04:17:49.411Z,91.99
2023-03-06T04:22:56.676Z,91.84
2023-03-06T04:28:02.420Z,92.04
2023-03-06T04:33:10.147Z,92.20
2023-03-06T04:38:17.783Z,92.33
2023-03-06T04:43:25.113Z,92.54
2023-03-06T04:48:32.602Z,92.48
2023-03-06T04:53:40.443Z,92.38
2023-03-06T04:58:48.323Z,92.35
2023-03-06T05:03:55.946Z,92.26
2023-03-06T05:09:03.602Z,92.06
2023-03-06T05:14:11.232Z,92.05
2023-03-06T05:19:18.539Z,91.90
2023-03-06T05:24:25.974Z,91.90
2023-03-06T05:29:33.225Z,91.91
2023-03-06T05:34:39.130Z,91.72
2023-03-06T05:39:46.352Z,91.55
2023-03-06T05:44:54.069Z,91.50
2023-03-06T05:50:01.448Z,91.32
2023-03-06T05:55:11.806Z,91.37
2023-03-06T06:00:21.349Z,91.23
2023-03-06T06:05:28.696Z,91.23
2023-03-06T06:10:35.983Z,90.91
2023-03-06T06:15:43.620Z,90.38
2023-03-06T06:20:49.125Z,90.33
2023-03-06T06:28:16.553Z,89.80
2023-03-06T06:33:24.312Z,89.63
2023-03-06T06:38:31.828Z,89.29
2023-03-06T06:43:39.261Z,88.94
2023-03-06T06:48:48.887Z,88.43
2023-03-06T06:53:57.224Z,88.04
2023-03-06T06:59:15.969Z,87.82
2023-03-06T07:04:24.631Z,87.42
2023-03-06T07:09:32.217Z,87.57
2023-03-06T07:14:41.622Z,87.03
2023-03-06T07:19:49.132Z,85.62
2023-03-06T07:24:56.479Z,85.57
2023-03-06T07:30:02.516Z,85.20
2023-03-06T07:35:19.793Z,84.45
2023-03-06T07:40:28.633Z,84.38
2023-03-06T07:45:36.235Z,84.19
2023-03-06T07:50:44.666Z,83.91
2023-03-06T07:55:51.843Z,83.07
2023-03-06T08:00:57.442Z,82.61
2023-03-06T08:06:13.814Z,82.32
2023-03-06T08:11:23.429Z,81.79
2023-03-06T08:16:31.917Z,81.37
2023-03-06T08:21:39.534Z,81.11
2023-03-06T08:26:47.427Z,80.00
2023-03-06T08:31:54.853Z,79.98
2023-03-06T08:37:02.481Z,77.80
2023-03-06T08:42:10.998Z,77.45
2023-03-06T08:47:18.370Z,77.98
2023-03-06T08:52:25.732Z,77.44
2023-03-06T08:57:33.421Z,76.75
2023-03-06T09:05:24.010Z,76.70
2023-03-06T09:10:32.241Z,76.27
2023-03-06T09:15:40.460Z,75.94
2023-03-06T09:20:47.861Z,74.46
2023-03-06T09:25:57.165Z,73.84
2023-03-06T09:31:08.600Z,73.02
2023-03-06T09:36:18.410Z,70.14
2023-03-06T09:41:37.985Z,69.77
2023-03-06T09:47:23.306Z,69.05
2023-03-06T09:52:39.082Z,69.77
2023-03-06T09:57:55.023Z,69.06
2023-03-06T10:03:16.721Z,67.79
2023-03-06T10:08:31.599Z,68.63
2023-03-06T10:13:44.891Z,66.08
2023-03-06T10:18:53.304Z,63.25
2023-03-06T10:24:10.858Z,63.22
2023-03-06T10:29:32.436Z,61.49
2023-03-06T10:34:43.060Z,60.55
2023-03-06T10:39:56.341Z,60.01
2023-03-06T10:45:15.013Z,59.13
2023-03-06T10:50:28.248Z,58.53
2023-03-06T10:55:37.905Z,58.90
2023-03-06T11:00:45.125Z,57.93
2023-03-06T11:06:13.323Z,57.75
2023-03-06T11:11:37.194Z,57.13
2023-03-06T11:16:53.687Z,56.77
2023-03-06T11:22:06.895Z,55.23
2023-03-06T11:27:26.278Z,54.00
2023-03-06T11:32:42.344Z,55.59
2023-03-06T11:37:55.205Z,55.43
2023-03-06T11:43:16.211Z,55.23
2023-03-06T11:48:29.119Z,54.67
2023-03-06T11:53:39.852Z,55.37
2023-03-06T11:59:02.578Z,55.99
2023-03-06T12:04:35.596Z,55.39
2023-03-06T12:09:52.744Z,55.66
2023-03-06T12:15:14.826Z,55.60
2023-03-06T12:20:36.054Z,55.16
2023-03-06T12:25:46.199Z,56.69
2023-03-06T12:31:12.672Z,55.64
2023-03-06T12:36:40.536Z,56.12
2023-03-06T12:41:57.786Z,56.05
2023-03-06T12:47:10.366Z,55.72
2023-03-06T12:52:30.185Z,55.47
2023-03-06T12:57:37.928Z,55.41
2023-03-06T13:03:08.004Z,55.98
2023-03-06T13:08:51.215Z,56.23
2023-03-06T13:13:59.523Z,55.02
2023-03-06T13:19:17.697Z,55.54
2023-03-06T13:24:26.685Z,56.25
2023-03-06T13:29:54.531Z,57.58
2023-03-06T13:35:01.949Z,57.65
2023-03-06T13:40:35.334Z,58.36
2023-03-06T13:45:44.995Z,58.54
2023-03-06T13:50:53.007Z,58.09
2023-03-06T13:56:14.339Z,57.09
2023-03-06T14:01:37.239Z,56.65
2023-03-06T14:06:54.404Z,62.85
2023-03-06T14:12:07.607Z,66.87
2023-03-06T14:17:26.567Z,69.73
2023-03-06T14:22:34.748Z,71.30
2023-03-06T14:27:54.889Z,72.38
2023-03-06T14:33:13.834Z,72.25
2023-03-06T14:38:21.132Z,72.16
2023-03-06T14:43:28.496Z,72.23
2023-03-06T14:48:45.046Z,72.13
2023-03-06T14:53:55.598Z,71.83
2023-03-06T14:59:05.572Z,70.64
2023-03-06T15:04:21.791Z,69.81
2023-03-06T15:09:31.453Z,69.14
2023-03-06T15:14:41.460Z,68.83
2023-03-06T15:19:50.839Z,68.67
2023-03-06T15:25:18.670Z,68.23
2023-03-06T15:30:29.767Z,68.08
2023-03-06T15:35:38.347Z,67.28
2023-03-06T15:40:57.720Z,67.80
2023-03-06T15:46:06.979Z,67.45
2023-03-06T15:51:14.796Z,66.21
2023-03-06T15:56:27.911Z,65.61
2023-03-06T16:01:37.108Z,65.60
2023-03-06T16:06:46.249Z,64.54
2023-03-06T16:11:53.384Z,65.06
2023-03-06T16:17:00.972Z,64.61
2023-03-06T16:22:09.238Z,64.78
2023-03-06T16:27:20.704Z,64.47
2023-03-06T16:32:28.852Z,64.04
2023-03-06T16:37:36.328Z,63.72
2023-03-06T16:42:43.695Z,63.79
2023-03-06T16:47:51.613Z,63.27
2023-03-06T16:52:59.833Z,62.61
2023-03-06T16:58:08.899Z,63.33
2023-03-06T17:03:16.977Z,63.24
2023-03-06T17:08:24.210Z,62.75
2023-03-06T17:19:32.391Z,64.41
2023-03-06T17:24:37.104Z,65.77
2023-03-06T17:29:41.064Z,67.10
2023-03-06T17:34:45.883Z,68.11
2023-03-06T17:39:49.892Z,68.92
2023-03-06T17:44:53.983Z,69.38
2023-03-06T17:49:58.057Z,69.46
2023-03-06T17:55:02.340Z,69.97
2023-03-06T18:00:13.180Z,70.06
2023-03-06T18:05:20.235Z,70.79
2023-03-06T18:10:24.542Z,71.02
2023-03-06T18:15:28.780Z,71.41
2023-03-06T18:20:33.297Z,71.68
2023-03-06T18:25:37.833Z,72.29
2023-03-06T18:30:42.277Z,72.64
2023-03-06T18:35:47.144Z,73.08
2023-03-06T18:40:51.698Z,73.27
2023-03-06T18:45:57.117Z,73.78
2023-03-06T18:51:06.478Z,73.95
2023-03-06T18:56:16.246Z,74.46
2023-03-06T19:01:21.819Z,74.99
2023-03-06T19:06:27.832Z,75.15
2023-03-06T19:11:33.979Z,75.47
2023-03-06T19:16:38.404Z,75.97
2023-03-06T19:21:42.538Z,76.40
2023-03-06T19:26:46.655Z,76.68
2023-03-06T19:31:51.775Z,77.00
2023-03-06T19:36:55.827Z,77.29
2023-03-06T19:41:59.700Z,77.77
2023-03-06T19:47:03.863Z,77.89
2023-03-06T19:52:08.345Z,78.16
2023-03-06T19:57:13.442Z,78.16
2023-03-06T20:02:18.971Z,78.13
2023-03-06T20:07:22.998Z,78.07
2023-03-06T20:12:27.274Z,78.07
2023-03-06T20:17:32.107Z,78.25
2023-03-06T20:22:36.224Z,78.27
2023-03-06T20:27:40.503Z,78.67
2023-03-06T20:32:45.154Z,78.95
2023-03-06T20:37:49.271Z,79.38
2023-03-06T20:42:53.415Z,79.30
2023-03-06T20:47:57.579Z,79.49
2023-03-06T20:53:01.641Z,79.46
2023-03-06T20:58:07.178Z,79.48
2023-03-06T21:03:11.450Z,79.41
2023-03-06T21:08:16.268Z,79.09
2023-03-06T21:13:20.973Z,79.47
2023-03-06T21:18:25.883Z,79.30
2023-03-06T21:23:30.078Z,79.17
2023-03-06T21:28:34.414Z,79.14
2023-03-06T21:33:38.537Z,78.93
2023-03-06T21:38:42.469Z,78.80
2023-03-06T21:43:47.848Z,79.11
2023-03-06T21:48:52.484Z,79.09
2023-03-06T21:53:57.356Z,79.02
2023-03-06T21:59:01.712Z,79.23
2023-03-06T22:04:06.202Z,79.10
2023-03-06T22:09:13.155Z,79.12
2023-03-06T22:14:16.801Z,79.20
2023-03-06T22:19:21.065Z,79.31
2023-03-06T22:24:25.482Z,79.44
2023-03-06T22:29:30.086Z,79.83
2023-03-06T22:34:34.876Z,79.94
2023-03-06T22:39:39.764Z,79.94
2023-03-06T22:44:44.231Z,80.11
2023-03-06T22:49:48.141Z,80.46
2023-03-06T22:54:52.198Z,80.35
2023-03-06T22:59:56.287Z,80.60
2023-03-06T23:05:00.212Z,80.36
2023-03-06T23:10:06.355Z,80.45
2023-03-06T23:15:11.477Z,80.89
2023-03-06T23:20:15.794Z,81.18
2023-03-06T23:29:11.432Z,81.09
2023-03-06T23:34:19.220Z,81.29
2023-03-06T23:39:27.212Z,81.17
2023-03-06T23:44:35.870Z,80.89
2023-03-06T23:49:43.186Z,80.89
2023-03-06T23:54:52.673Z,80.80
